Time;durP1;ratioP1;P1;durP2;ratioP2;P2;SDS_P1;SDS_P2;PMS_P1;PMS_P2;Temp;Humidity;BMP_temperature;BMP_pressure;BME280_temperature;BME280_humidity;BME280_pressure;Samples;Min_cycle;Max_cycle;Signal;HPM_P1;HPM_P2
2021/09/23 00:00:50;;;;;;;;;;;;;;;11.51;100.00;97155.84;4986560;28;20017;-57
2021/09/23 00:03:32;;;;;;;;;;;;;;;11.51;100.00;97153.19;4979867;28;21362;-59
2021/09/23 00:06:01;;;;;;;;;;;;;;;11.46;100.00;97147.50;4986154;28;20079;-59
2021/09/23 00:08:30;;;;;;;;;;;;;;;11.53;100.00;97145.16;4984947;28;20033;-58
2021/09/23 00:10:58;;;;;;;;;;;;;;;11.20;100.00;97147.09;4986897;28;20033;-58
2021/09/23 00:13:27;;;;;;;;;;;;;;;11.31;100.00;97136.44;4990387;28;20024;-59
2021/09/23 00:15:56;;;;;;;;;;;;;;;11.47;100.00;97133.31;4984491;28;20040;-60
2021/09/23 00:18:28;;;;;;;;;;;;;;;11.36;100.00;97136.06;4987352;28;20634;-57
2021/09/23 00:20:57;;;;;;;;;;;;;;;11.37;100.00;97133.25;4985320;28;20041;-59
2021/09/23 00:23:25;;;;;;;;;;;;;;;11.77;100.00;97121.88;4988736;28;20436;-55
2021/09/23 00:25:54;;;;;;;;;;;;;;;11.67;100.00;97130.75;4984362;28;20036;-60
2021/09/23 00:28:23;;;;;;;;;;;;;;;11.55;100.00;97124.72;4989565;28;20038;-59
2021/09/23 00:30:51;;;;;;;;;;;;;;;11.30;100.00;97115.44;4986913;28;20034;-55
2021/09/23 00:33:19;;;;;;;;;;;;;;;11.41;100.00;97116.19;4982551;28;20484;-58
2021/09/23 00:35:47;;;;;;;;;;;;;;;11.53;100.00;97119.56;4986853;28;20022;-59
2021/09/23 00:38:16;;;;;;;;;;;;;;;11.52;100.00;97109.13;4985882;28;20029;-59
2021/09/23 00:40:44;;;;;;;;;;;;;;;11.52;100.00;97111.75;4988286;28;20009;-54
2021/09/23 00:43:13;;;;;;;;;;;;;;;11.78;100.00;97107.66;4986968;28;20008;-58
2021/09/23 00:45:41;;;;;;;;;;;;;;;11.62;100.00;97110.00;4984025;28;20021;-58
2021/09/23 00:48:10;;;;;;;;;;;;;;;11.80;100.00;97113.66;4986351;28;20026;-60
2021/09/23 00:50:40;;;;;;;;;;;;;;;11.91;100.00;97111.91;4985859;28;20433;-58
2021/09/23 00:53:08;;;;;;;;;;;;;;;11.90;100.00;97113.69;4986084;28;20022;-59
2021/09/23 00:55:36;;;;;;;;;;;;;;;11.47;100.00;97111.34;4985497;28;20017;-58
2021/09/23 00:58:05;;;;;;;;;;;;;;;11.06;100.00;97111.31;4986571;28;20022;-60
2021/09/23 01:00:34;;;;;;;;;;;;;;;10.99;100.00;97122.53;4986984;28;20447;-59
2021/09/23 01:03:02;;;;;;;;;;;;;;;11.43;100.00;97121.34;4981521;28;20052;-60
2021/09/23 01:05:31;;;;;;;;;;;;;;;11.46;100.00;97123.72;4987516;28;20036;-57
2021/09/23 01:07:59;;;;;;;;;;;;;;;11.30;100.00;97118.09;4984186;28;20022;-60
2021/09/23 01:10:27;;;;;;;;;;;;;;;11.23;100.00;97114.31;4988125;28;20023;-58
2021/09/23 01:12:55;;;;;;;;;;;;;;;10.64;100.00;97124.53;4985629;28;20041;-59
2021/09/23 01:15:23;;;;;;;;;;;;;;;10.82;100.00;97118.69;4984221;28;20013;-58
2021/09/23 01:17:53;;;;;;;;;;;;;;;10.94;100.00;97117.63;4983743;28;20033;-60
2021/09/23 01:20:21;;;;;;;;;;;;;;;10.71;100.00;97116.13;4983438;28;20029;-59
2021/09/23 01:22:50;;;;;;;;;;;;;;;10.91;100.00;97120.56;4990402;28;20004;-59
2021/09/23 01:25:20;;;;;;;;;;;;;;;11.01;100.00;97108.25;4988555;28;20005;-59
2021/09/23 01:27:48;;;;;;;43.40;8.23;;;;;;;10.82;100.00;97119.50;4983183;28;25115;-58
2021/09/23 01:30:17;;;;;;;14.07;7.65;;;;;;;10.89;100.00;97111.91;4998219;28;20074;-58
2021/09/23 01:32:46;;;;;;;10.02;8.30;;;;;;;11.01;100.00;97115.31;4986342;28;20066;-58
2021/09/23 01:35:14;;;;;;;11.85;8.18;;;;;;;11.07;100.00;97120.06;4985458;28;20062;-59
2021/09/23 01:37:43;;;;;;;9.57;8.35;;;;;;;10.80;100.00;97117.97;4984321;28;20078;-59
2021/09/23 01:40:14;;;;;;;8.60;7.70;;;;;;;10.91;100.00;97112.63;4985560;28;20077;-59
2021/09/23 01:42:42;;;;;;;;;;;;;;;11.06;100.00;97107.84;4986199;28;20058;-58
2021/09/23 01:45:12;;;;;;;8.15;7.10;;;;;;;11.16;100.00;97109.56;4984489;28;20348;-58
2021/09/23 01:47:41;;;;;;;8.30;6.93;;;;;;;11.26;100.00;97109.59;4982599;28;20519;-59
2021/09/23 01:50:10;;;;;;;8.48;7.43;;;;;;;11.38;100.00;97103.22;4982590;28;20065;-60
2021/09/23 01:52:38;;;;;;;8.63;7.72;;;;;;;11.02;100.00;97091.44;4984901;28;20073;-59
2021/09/23 01:55:08;;;;;;;9.75;7.95;;;;;;;11.12;100.00;97097.59;4986572;28;20069;-59
2021/09/23 01:57:38;;;;;;;10.43;7.32;;;;;;;10.76;100.00;97095.44;4981509;28;20070;-58
2021/09/23 02:00:07;;;;;;;8.38;7.35;;;;;;;11.05;100.00;97090.34;5011232;28;20477;-59
2021/09/23 02:02:36;;;;;;;8.38;6.90;;;;;;;11.16;100.00;97080.53;4983435;28;20476;-59
2021/09/23 02:05:05;;;;;;;16.13;7.57;;;;;;;11.01;100.00;97083.63;4984731;28;20174;-59
2021/09/23 02:07:34;;;;;;;9.77;7.80;;;;;;;11.01;100.00;97081.84;4985267;28;20069;-58
2021/09/23 02:10:02;;;;;;;10.50;7.90;;;;;;;10.97;100.00;97075.16;4986399;28;20092;-59
2021/09/23 02:12:31;;;;;;;10.35;8.00;;;;;;;10.77;100.00;97086.56;4980697;28;20070;-60
2021/09/23 02:15:01;;;;;;;9.68;7.93;;;;;;;10.71;100.00;97074.75;4984676;28;20061;-58
2021/09/23 02:17:30;;;;;;;9.93;7.97;;;;;;;10.38;100.00;97073.97;4985778;28;20065;-59
2021/09/23 02:19:58;;;;;;;9.75;7.88;;;;;;;10.54;100.00;97073.53;4979391;28;20085;-59
2021/09/23 02:22:27;;;;;;;11.52;8.57;;;;;;;10.72;100.00;97067.66;4984277;28;20065;-61
2021/09/23 02:24:55;;;;;;;11.10;8.45;;;;;;;10.42;100.00;97070.09;4985223;28;20169;-59
2021/09/23 02:27:25;;;;;;;9.30;7.07;;;;;;;10.78;100.00;97062.72;4984009;28;20073;-59
2021/09/23 02:29:54;;;;;;;7.30;6.60;;;;;;;10.49;100.00;97064.31;4980509;28;20050;-57
2021/09/23 02:32:23;;;;;;;6.40;5.72;;;;;;;10.35;100.00;97058.41;4979632;28;20070;-59
2021/09/23 02:34:52;;;;;;;6.28;5.68;;;;;;;10.30;100.00;97063.25;4996244;28;20074;-60
2021/09/23 02:37:20;;;;;;;6.15;5.55;;;;;;;10.53;100.00;97061.31;4986572;28;20086;-59
2021/09/23 02:39:49;;;;;;;6.38;5.68;;;;;;;10.53;100.00;97063.97;4983188;28;20070;-54
2021/09/23 02:42:18;;;;;;;7.00;6.25;;;;;;;10.52;100.00;97057.00;4979402;28;20070;-59
2021/09/23 02:44:47;;;;;;;7.35;6.25;;;;;;;10.69;100.00;97056.41;4985035;28;20071;-56
2021/09/23 02:47:15;;;;;;;11.65;7.15;;;;;;;10.82;100.00;97056.19;4982769;28;20617;-58
2021/09/23 02:49:45;;;;;;;7.93;7.05;;;;;;;10.43;100.00;97055.16;4984728;28;20085;-59
2021/09/23 02:52:14;;;;;;;10.02;7.45;;;;;;;10.53;100.00;97042.00;4985685;28;20485;-59
2021/09/23 02:54:42;;;;;;;25.40;8.35;;;;;;;10.56;100.00;97033.84;4983661;28;20089;-58
2021/09/23 02:57:11;;;;;;;14.65;9.20;;;;;;;10.35;100.00;97045.22;4983732;28;20464;-60
2021/09/23 02:59:40;;;;;;;13.75;9.00;;;;;;;10.47;100.00;97035.47;4984161;28;20467;-57
2021/09/23 03:02:08;;;;;;;16.10;9.68;;;;;;;10.52;100.00;97032.44;4981274;28;20077;-55
2021/09/23 03:04:37;;;;;;;19.67;10.15;;;;;;;10.62;100.00;97033.31;4980013;28;20082;-58
2021/09/23 03:07:07;;;;;;;16.67;10.00;;;;;;;10.92;100.00;97030.69;4986555;28;20089;-54
2021/09/23 03:09:36;;;;;;;19.17;9.70;;;;;;;10.81;100.00;97033.44;4979679;28;20076;-59
2021/09/23 03:12:06;;;;;;;22.25;9.93;;;;;;;10.93;100.00;97042.91;4982289;28;20058;-58
2021/09/23 03:14:34;;;;;;;42.95;12.20;;;;;;;10.86;100.00;97038.28;4985624;28;20069;-60
2021/09/23 03:17:03;;;;;;;37.58;11.60;;;;;;;10.51;100.00;97036.03;4987301;28;20066;-58
2021/09/23 03:19:32;;;;;;;31.05;12.43;;;;;;;10.21;100.00;97033.16;4987035;28;20070;-59
2021/09/23 03:22:01;;;;;;;77.38;12.35;;;;;;;9.73;100.00;97030.97;4989609;28;21336;-58
2021/09/23 03:24:31;;;;;;;77.05;12.23;;;;;;;9.64;100.00;97029.13;4983838;28;20061;-59
2021/09/23 03:26:59;;;;;;;45.72;11.82;;;;;;;9.60;100.00;97030.34;4986641;28;20065;-57
2021/09/23 03:29:28;;;;;;;51.35;11.40;;;;;;;9.93;100.00;97024.09;4986384;28;20069;-59
2021/09/23 03:31:57;;;;;;;23.45;9.85;;;;;;;9.95;100.00;97023.97;4987503;28;20559;-58
2021/09/23 03:34:25;;;;;;;21.40;10.38;;;;;;;9.92;100.00;97017.16;4988347;28;20077;-60
2021/09/23 03:36:54;;;;;;;17.00;10.20;;;;;;;9.62;100.00;97017.88;4987724;28;20453;-57
2021/09/23 03:39:22;;;;;;;14.18;9.48;;;;;;;9.66;100.00;97011.38;4987042;28;20543;-59
2021/09/23 03:41:52;;;;;;;10.27;7.97;;;;;;;9.73;100.00;97009.91;4983044;28;20837;-59
2021/09/23 03:44:21;;;;;;;10.50;7.22;;;;;;;9.98;100.00;97000.84;4987681;28;20073;-58
2021/09/23 03:46:49;;;;;;;13.35;7.90;;;;;;;9.68;100.00;96998.94;4979753;28;20412;-55
2021/09/23 03:49:18;;;;;;;10.82;8.13;;;;;;;9.65;100.00;97001.00;4989711;28;20558;-58
2021/09/23 03:51:46;;;;;;;20.60;8.77;;;;;;;9.43;100.00;96999.28;4988337;28;20065;-56
2021/09/23 03:54:15;;;;;;;13.43;8.57;;;;;;;9.50;100.00;96997.81;4986053;28;20066;-59
2021/09/23 03:56:44;;;;;;;11.55;9.13;;;;;;;9.34;100.00;96992.13;4984574;28;20524;-59
2021/09/23 03:59:14;;;;;;;14.18;10.18;;;;;;;9.58;100.00;96987.47;4985267;28;20509;-57
2021/09/23 04:01:42;;;;;;;12.90;9.82;;;;;;;9.38;100.00;96988.25;4987573;28;20386;-58
2021/09/23 04:04:31;;;;;;;17.20;10.45;;;;;;;9.45;100.00;96987.63;4988000;28;20061;-57
2021/09/23 04:07:00;;;;;;;16.45;9.88;;;;;;;9.39;100.00;96982.03;5004468;28;20039;-59
2021/09/23 04:09:28;;;;;;;25.45;10.60;;;;;;;9.60;100.00;96976.81;4987644;28;20072;-58
2021/09/23 04:11:57;;;;;;;14.27;10.70;;;;;;;9.81;100.00;96969.81;4987060;28;20525;-57
2021/09/23 04:14:26;;;;;;;14.88;9.77;;;;;;;10.04;100.00;96957.31;4988642;28;20069;-57
2021/09/23 04:16:55;;;;;;;14.60;9.68;;;;;;;10.26;100.00;96953.75;4986175;28;20058;-58
2021/09/23 04:19:24;;;;;;;11.50;9.00;;;;;;;10.20;100.00;96952.44;4990362;28;20089;-59
2021/09/23 04:21:52;;;;;;;10.10;8.35;;;;;;;10.38;100.00;96942.16;4985366;28;20147;-59
2021/09/23 04:24:21;;;;;;;11.13;8.95;;;;;;;10.31;100.00;96943.63;4987637;28;20077;-56
2021/09/23 04:26:49;;;;;;;9.98;7.82;;;;;;;10.19;100.00;96937.59;4985638;28;20061;-56
2021/09/23 04:29:18;;;;;;;11.05;7.88;;;;;;;10.23;100.00;96940.81;4985517;28;20078;-58
2021/09/23 04:31:48;;;;;;;11.43;8.73;;;;;;;9.75;100.00;96947.44;4986411;28;20085;-57
2021/09/23 04:34:16;;;;;;;12.48;8.85;;;;;;;9.14;100.00;96951.59;4988715;28;20073;-58
2021/09/23 04:36:45;;;;;;;10.90;8.48;;;;;;;9.50;100.00;96946.00;4985493;28;20501;-58
2021/09/23 04:39:16;;;;;;;12.15;8.63;;;;;;;9.81;100.00;96946.09;4985628;28;20061;-58
2021/09/23 04:41:44;;;;;;;10.05;8.20;;;;;;;10.03;100.00;96941.66;4982654;28;20069;-58
2021/09/23 04:44:13;;;;;;;10.43;8.13;;;;;;;9.83;100.00;96943.31;4986347;28;20057;-59
2021/09/23 04:46:42;;;;;;;11.68;9.02;;;;;;;9.95;100.00;96942.31;4986605;28;20752;-57
2021/09/23 04:49:12;;;;;;;14.27;9.15;;;;;;;9.73;100.00;96930.06;4989360;28;20073;-59
2021/09/23 04:51:41;;;;;;;12.57;9.55;;;;;;;9.66;100.00;96929.75;4984207;28;20077;-59
2021/09/23 04:54:09;;;;;;;45.95;10.73;;;;;;;9.16;100.00;96931.28;4985789;28;20173;-60
2021/09/23 04:56:38;;;;;;;25.75;10.02;;;;;;;9.48;100.00;96929.47;4982337;28;20042;-57
2021/09/23 04:59:06;;;;;;;13.73;9.32;;;;;;;9.27;100.00;96923.34;4984780;28;20088;-59
2021/09/23 05:01:35;;;;;;;14.30;9.73;;;;;;;9.52;100.00;96924.78;4984568;28;20445;-58
2021/09/23 05:04:04;;;;;;;14.77;8.88;;;;;;;9.37;100.00;96916.38;4988804;28;20061;-60
2021/09/23 05:06:34;;;;;;;11.68;8.52;;;;;;;9.67;100.00;96918.28;4984470;28;20086;-59
2021/09/23 05:09:03;;;;;;;10.98;8.70;;;;;;;9.95;100.00;96923.88;4982989;28;20062;-58
2021/09/23 05:11:32;;;;;;;10.45;8.40;;;;;;;10.12;100.00;96925.06;4985883;28;20069;-60
2021/09/23 05:14:00;;;;;;;12.38;9.00;;;;;;;10.15;100.00;96930.91;4984502;28;20138;-56
2021/09/23 05:16:29;;;;;;;13.25;8.07;;;;;;;9.97;100.00;96924.56;4988172;28;20073;-59
2021/09/23 05:18:58;;;;;;;13.07;8.65;;;;;;;10.02;100.00;96918.91;4998604;28;20986;-58
2021/09/23 05:21:27;;;;;;;16.10;9.82;;;;;;;9.69;100.00;96920.75;4985431;28;20065;-60
2021/09/23 05:23:57;;;;;;;11.45;8.82;;;;;;;9.96;100.00;96910.53;4978337;28;20065;-59
2021/09/23 05:26:25;;;;;;;11.60;9.13;;;;;;;10.16;100.00;96908.03;5016621;28;20615;-58
2021/09/23 05:28:54;;;;;;;12.02;9.30;;;;;;;10.29;100.00;96911.31;4982863;28;20066;-58
2021/09/23 05:31:22;;;;;;;9.32;7.47;;;;;;;10.04;100.00;96898.53;4988400;28;20558;-59
2021/09/23 05:33:51;;;;;;;9.73;7.47;;;;;;;10.09;100.00;96897.19;4983193;28;20143;-59
2021/09/23 05:36:19;;;;;;;10.70;7.82;;;;;;;10.30;100.00;96894.53;4978449;28;20069;-57
2021/09/23 05:38:48;;;;;;;10.30;7.80;;;;;;;10.11;100.00;96886.50;4985953;28;20093;-55
2021/09/23 05:41:18;;;;;;;10.07;6.85;;;;;;;10.37;100.00;96884.28;4982388;28;20062;-58
2021/09/23 05:43:47;;;;;;;9.30;7.50;;;;;;;10.13;100.00;96879.31;4983490;28;20070;-59
2021/09/23 05:46:16;;;;;;;11.75;7.85;;;;;;;10.11;100.00;96875.94;4983660;28;20073;-60
2021/09/23 05:48:44;;;;;;;11.93;10.02;;;;;;;10.41;100.00;96880.41;4984915;28;20081;-58
2021/09/23 05:51:13;;;;;;;11.57;9.32;;;;;;;10.38;100.00;96881.50;4980950;28;20508;-59
2021/09/23 05:53:41;;;;;;;11.35;9.13;;;;;;;10.61;100.00;96879.50;4983270;28;20070;-59
2021/09/23 05:56:10;;;;;;;12.32;8.88;;;;;;;10.83;100.00;96882.91;4981434;28;20436;-59
2021/09/23 05:58:40;;;;;;;12.30;9.40;;;;;;;11.11;100.00;96883.91;4983613;28;20073;-56
2021/09/23 06:01:08;;;;;;;15.45;10.02;;;;;;;11.28;100.00;96885.03;4983842;28;20421;-59
2021/09/23 06:03:48;;;;;;;12.25;10.45;;;;;;;11.60;100.00;96879.47;4980820;28;20084;-59
2021/09/23 06:06:17;;;;;;;13.65;10.55;;;;;;;11.40;100.00;96882.13;4983142;28;20069;-60
2021/09/23 06:08:46;;;;;;;12.95;9.80;;;;;;;11.69;100.00;96877.78;4985047;28;20074;-57
2021/09/23 06:11:14;;;;;;;14.95;10.15;;;;;;;11.73;100.00;96874.72;4983602;28;20539;-59
2021/09/23 06:13:46;;;;;;;11.73;9.68;;;;;;;12.06;100.00;96873.44;4979276;28;20460;-58
2021/09/23 06:16:15;;;;;;;12.57;9.88;;;;;;;12.27;100.00;96875.03;4987457;28;20062;-58
2021/09/23 06:18:45;;;;;;;13.93;10.48;;;;;;;12.57;100.00;96871.28;4984781;28;20509;-59
2021/09/23 06:21:13;;;;;;;13.82;10.70;;;;;;;12.41;100.00;96868.44;4983545;28;20450;-56
2021/09/23 06:23:42;;;;;;;14.13;10.95;;;;;;;12.33;100.00;96866.53;4986407;28;20105;-59
2021/09/23 06:26:10;;;;;;;16.42;10.27;;;;;;;12.64;100.00;96868.91;4980332;28;20477;-59
2021/09/23 06:28:39;;;;;;;14.98;10.77;;;;;;;12.78;100.00;96869.22;4979570;28;20078;-59
2021/09/23 06:31:09;;;;;;;18.48;11.82;;;;;;;13.02;100.00;96867.81;4987791;28;20112;-58
2021/09/23 06:33:38;;;;;;;16.92;11.57;;;;;;;13.48;100.00;96855.38;4986794;28;20077;-59
2021/09/23 06:36:07;;;;;;;16.48;11.85;;;;;;;13.44;100.00;96854.84;4980929;28;20101;-60
2021/09/23 06:38:36;;;;;;;16.38;11.13;;;;;;;13.52;100.00;96856.72;4982516;28;20503;-60
2021/09/23 06:41:04;;;;;;;14.93;10.95;;;;;;;13.63;100.00;96853.84;4982788;28;20449;-59
2021/09/23 06:43:33;;;;;;;14.77;10.77;;;;;;;13.88;100.00;96854.03;4984495;28;20441;-59
2021/09/23 06:46:01;;;;;;;16.92;11.07;;;;;;;14.27;100.00;96850.94;4987347;28;20090;-60
2021/09/23 06:48:31;;;;;;;14.65;10.80;;;;;;;14.32;100.00;96851.31;4987314;28;20066;-59
2021/09/23 06:51:00;;;;;;;15.27;10.93;;;;;;;14.47;100.00;96847.88;4986192;28;20505;-59
2021/09/23 06:53:28;;;;;;;19.52;11.18;;;;;;;14.79;100.00;96853.50;4986732;28;20069;-59
2021/09/23 06:55:57;;;;;;;15.10;10.70;;;;;;;14.35;100.00;96850.97;4989125;28;20058;-60
2021/09/23 06:58:25;;;;;;;19.45;12.32;;;;;;;13.93;100.00;96849.91;4984895;28;20082;-59
2021/09/23 07:00:54;;;;;;;15.98;11.02;;;;;;;14.69;100.00;96850.97;4989831;28;20070;-60
2021/09/23 07:03:23;;;;;;;16.02;10.13;;;;;;;15.02;100.00;96849.25;4988141;28;20078;-58
2021/09/23 07:05:53;;;;;;;12.98;10.55;;;;;;;15.19;100.00;96842.16;4989719;28;20076;-59
2021/09/23 07:08:21;;;;;;;13.75;10.90;;;;;;;14.51;100.00;96842.28;4985034;28;20073;-59
2021/09/23 07:10:50;;;;;;;13.80;10.90;;;;;;;14.41;100.00;96837.06;4986613;28;20093;-59
2021/09/23 07:13:19;;;;;;;17.95;10.10;;;;;;;15.24;100.00;96839.00;4984643;28;20089;-57
2021/09/23 07:15:48;;;;;;;12.82;9.70;;;;;;;14.67;100.00;96835.22;5004536;28;20050;-59
2021/09/23 07:18:17;;;;;;;13.80;9.55;;;;;;;14.25;100.00;96837.84;4984379;28;20074;-60
2021/09/23 07:20:45;;;;;;;12.18;9.80;;;;;;;14.84;100.00;96836.09;4987194;28;20081;-59
2021/09/23 07:23:15;;;;;;;13.48;10.77;;;;;;;14.63;100.00;96833.88;4981953;28;20470;-58
2021/09/23 07:25:43;;;;;;;12.85;9.95;;;;;;;14.91;100.00;96829.16;4989473;28;20555;-60
2021/09/23 07:28:15;;;;;;;16.25;10.60;;;;;;;14.81;100.00;96835.59;4990725;28;20077;-60
2021/09/23 07:30:44;;;;;;;15.02;9.70;;;;;;;14.67;100.00;96831.75;4988299;28;20081;-58
2021/09/23 07:33:12;;;;;;;15.85;10.18;;;;;;;16.03;100.00;96825.00;4986312;28;20169;-59
2021/09/23 07:35:41;;;;;;;17.42;10.18;;;;;;;15.97;100.00;96824.88;4983666;28;21022;-58
2021/09/23 07:38:09;;;;;;;14.93;9.85;;;;;;;16.71;100.00;96814.81;4988164;28;20093;-58
2021/09/23 07:40:39;;;;;;;14.00;10.25;;;;;;;16.30;100.00;96814.97;4978993;28;20113;-59
2021/09/23 07:43:08;;;;;;;18.23;9.98;;;;;;;16.06;100.00;96816.69;4989970;28;20100;-60
2021/09/23 07:45:36;;;;;;;12.63;9.50;;;;;;;16.36;100.00;96807.13;4988931;28;20081;-60
2021/09/23 07:48:06;;;;;;;15.48;9.93;;;;;;;16.78;100.00;96807.81;4984503;28;20089;-59
2021/09/23 07:50:34;;;;;;;11.95;9.50;;;;;;;16.47;100.00;96803.25;4980854;28;20077;-59
2021/09/23 07:53:03;;;;;;;13.02;8.85;;;;;;;17.09;100.00;96800.63;4986028;28;20065;-61
2021/09/23 07:55:31;;;;;;;12.13;9.32;;;;;;;17.71;100.00;96804.97;4984904;28;20093;-57
2021/09/23 07:58:01;;;;;;;17.38;9.45;;;;;;;17.44;100.00;96811.69;4987332;28;21437;-59
2021/09/23 08:00:30;;;;;;;12.65;9.45;;;;;;;17.36;100.00;96809.09;4985020;28;20070;-60
2021/09/23 08:02:59;;;;;;;11.55;9.35;;;;;;;16.59;100.00;96812.53;4987687;28;20074;-60
2021/09/23 08:05:29;;;;;;;9.35;8.10;;;;;;;17.12;100.00;96806.59;4984402;28;20066;-56
2021/09/23 08:07:58;;;;;;;10.68;8.38;;;;;;;17.00;100.00;96793.69;4987172;28;20760;-60
2021/09/23 08:10:27;;;;;;;12.93;8.82;;;;;;;16.81;100.00;96788.81;4987713;28;20096;-59
2021/09/23 08:12:55;;;;;;;11.68;9.07;;;;;;;17.05;100.00;96786.00;4987960;28;20066;-60
2021/09/23 08:15:25;;;;;;;14.48;9.10;;;;;;;17.36;100.00;96781.59;4987544;28;20065;-59
2021/09/23 08:17:54;;;;;;;10.45;8.10;;;;;;;16.93;100.00;96784.75;4983904;28;20077;-60
2021/09/23 08:20:22;;;;;;;8.70;7.75;;;;;;;18.79;100.00;96768.91;4987287;28;20073;-58
2021/09/23 08:22:51;;;;;;;10.75;8.25;;;;;;;17.42;100.00;96771.06;4984909;28;22681;-59
2021/09/23 08:25:19;;;;;;;10.80;8.10;;;;;;;18.14;100.00;96775.88;4985754;28;20078;-59
2021/09/23 08:27:48;;;;;;;9.38;7.90;;;;;;;18.09;100.00;96775.59;4985329;28;20074;-60
2021/09/23 08:30:16;;;;;;;8.55;7.20;;;;;;;18.33;100.00;96770.97;4987108;28;20525;-58
2021/09/23 08:32:46;;;;;;;11.30;7.85;;;;;;;19.04;100.00;96761.38;4979537;28;20663;-59
2021/09/23 08:35:15;;;;;;;11.00;7.57;;;;;;;19.15;100.00;96768.03;4987150;28;20103;-59
2021/09/23 08:37:45;;;;;;;11.25;7.55;;;;;;;19.71;91.78;96764.63;4986279;28;20085;-59
2021/09/23 08:40:19;;;;;;;9.38;6.97;;;;;;;20.09;82.01;96768.59;4988943;28;20089;-60
2021/09/23 08:42:47;;;;;;;8.75;6.78;;;;;;;18.92;95.86;96773.56;4984409;28;20070;-57
2021/09/23 08:45:17;;;;;;;10.93;6.50;;;;;;;18.66;100.00;96776.75;4987622;28;20073;-58
2021/09/23 08:47:48;;;;;;;10.00;6.40;;;;;;;19.47;94.11;96774.69;4986171;28;20074;-59
2021/09/23 08:50:17;;;;;;;8.98;6.25;;;;;;;20.20;77.56;96771.75;4983393;28;20093;-60
2021/09/23 08:52:46;;;;;;;8.82;6.10;;;;;;;19.44;87.94;96772.41;4985510;28;20823;-60
2021/09/23 08:55:28;;;;;;;11.52;6.07;;;;;;;19.75;83.15;96766.75;4990143;28;20140;-57
2021/09/23 08:57:58;;;;;;;10.00;6.38;;;;;;;19.96;79.81;96767.69;4981784;28;20243;-56
2021/09/23 09:00:26;;;;;;;10.00;6.82;;;;;;;20.82;76.60;96773.53;4985836;28;20447;-60
2021/09/23 09:03:04;;;;;;;9.90;6.45;;;;;;;20.53;79.81;96775.47;4984276;28;20045;-60
2021/09/23 09:05:34;;;;;;;6.75;5.90;;;;;;;20.92;71.96;96757.03;4986018;28;20508;-60
2021/09/23 09:08:04;;;;;;;8.70;5.67;;;;;;;20.51;73.74;96760.59;4985540;28;20141;-60
2021/09/23 09:10:34;;;;;;;18.05;6.75;;;;;;;19.93;76.17;96755.53;4981724;28;20585;-60
2021/09/23 09:13:03;;;;;;;7.90;5.65;;;;;;;20.80;74.56;96749.59;4982950;28;20078;-59
2021/09/23 09:15:35;;;;;;;7.60;5.68;;;;;;;20.55;78.61;96751.97;4987213;28;20034;-59
2021/09/23 09:18:19;;;;;;;7.97;5.63;;;;;;;20.71;72.12;96761.50;4978722;28;20066;-59
2021/09/23 09:20:55;;;;;;;8.43;5.28;;;;;;;20.99;75.75;96765.91;4984307;28;20077;-59
2021/09/23 09:23:25;;;;;;;5.25;4.75;;;;;;;20.70;73.02;96762.53;4983796;28;20058;-59
2021/09/23 09:25:53;;;;;;;6.93;4.55;;;;;;;21.19;69.54;96756.06;4985807;28;20073;-60
2021/09/23 09:28:22;;;;;;;6.22;5.32;;;;;;;21.63;66.39;96751.16;4988230;28;20062;-59
2021/09/23 09:30:55;;;;;;;7.43;5.13;;;;;;;22.34;63.42;96745.91;4986186;28;20065;-60
2021/09/23 09:33:35;;;;;;;6.57;4.93;;;;;;;21.57;64.98;96752.81;4984254;28;20065;-59
2021/09/23 09:36:05;;;;;;;6.53;4.95;;;;;;;21.60;63.31;96755.09;4981509;28;20705;-58
2021/09/23 09:38:34;;;;;;;5.60;4.50;;;;;;;22.29;58.69;96748.41;4986776;28;20057;-58
2021/09/23 09:41:06;;;;;;;7.32;5.10;;;;;;;22.09;58.65;96744.91;4982652;28;20073;-60
2021/09/23 09:43:36;;;;;;;6.97;5.32;;;;;;;22.48;59.18;96744.00;4984503;28;20062;-60
2021/09/23 09:46:05;;;;;;;9.77;4.95;;;;;;;22.24;59.44;96748.22;4983688;28;20057;-59
2021/09/23 09:48:42;;;;;;;6.25;4.90;;;;;;;21.78;62.42;96741.03;5008981;28;20066;-58
2021/09/23 09:51:10;;;;;;;7.50;4.82;;;;;;;22.31;60.00;96724.84;4985705;28;20066;-58
2021/09/23 09:53:39;;;;;;;5.80;4.82;;;;;;;22.40;62.31;96726.25;4983173;28;20453;-59
2021/09/23 09:56:21;;;;;;;6.07;5.00;;;;;;;21.28;65.70;96719.97;4982653;28;20058;-59
2021/09/23 09:59:07;;;;;;;8.73;4.72;;;;;;;22.14;59.62;96713.69;4984218;28;20089;-59
2021/09/23 10:01:36;;;;;;;5.82;5.03;;;;;;;22.98;56.77;96706.53;4989512;28;20603;-59
2021/09/23 10:04:06;;;;;;;6.15;4.68;;;;;;;22.33;59.17;96711.16;4986175;28;20066;-59
2021/09/23 10:06:35;;;;;;;7.32;4.60;;;;;;;22.39;58.20;96710.34;4985395;28;20076;-59
2021/09/23 10:09:04;;;;;;;7.40;4.10;;;;;;;23.18;54.91;96706.41;4983922;28;20548;-60
2021/09/23 10:11:33;;;;;;;4.75;4.10;;;;;;;21.94;59.20;96726.34;4985926;28;20069;-59
2021/09/23 10:14:03;;;;;;;9.82;4.00;;;;;;;22.65;54.86;96706.72;4985156;28;20496;-60
2021/09/23 10:16:32;;;;;;;6.10;4.00;;;;;;;22.24;53.67;96710.59;4976759;28;20082;-59
2021/09/23 10:19:01;;;;;;;7.13;3.75;;;;;;;22.11;57.06;96710.59;4985776;28;20167;-61
2021/09/23 10:21:31;;;;;;;5.60;3.88;;;;;;;22.09;57.94;96707.28;4985099;28;20077;-60
2021/09/23 10:23:59;;;;;;;6.20;4.10;;;;;;;22.28;56.34;96707.28;4985609;28;20085;-61
2021/09/23 10:26:30;;;;;;;4.45;3.92;;;;;;;22.83;55.12;96703.28;4979043;28;20058;-59
2021/09/23 10:29:00;;;;;;;5.78;3.92;;;;;;;22.74;56.29;96706.22;4986011;28;20478;-59
2021/09/23 10:31:33;;;;;;;;;;;;;;;23.12;53.38;96704.56;4983092;28;20086;-59
2021/09/23 10:34:02;;;;;;;4.57;3.55;;;;;;;22.58;54.40;96695.16;4985374;28;19969;-59
2021/09/23 10:36:34;;;;;;;5.68;3.50;;;;;;;22.48;53.81;96706.38;4983444;28;20073;-59
2021/09/23 10:39:05;;;;;;;4.47;3.60;;;;;;;23.09;51.98;96695.09;4985268;28;20487;-61
2021/09/23 10:41:37;;;;;;;4.40;3.47;;;;;;;23.64;50.72;96691.72;4981836;28;20070;-60
2021/09/23 10:44:06;;;;;;;4.68;3.28;;;;;;;23.00;53.32;96698.25;4986422;28;20085;-59
2021/09/23 10:46:36;;;;;;;4.33;3.70;;;;;;;23.31;51.68;96686.66;4984090;28;20105;-60
2021/09/23 10:49:06;;;;;;;4.63;3.50;;;;;;;23.00;53.67;96691.00;4987991;28;20119;-59
2021/09/23 10:51:36;;;;;;;4.00;3.42;;;;;;;22.57;53.45;96688.13;4985544;28;20070;-60
2021/09/23 10:54:05;;;;;;;4.93;3.80;;;;;;;23.17;52.15;96685.94;4982009;28;20515;-60
2021/09/23 10:56:35;;;;;;;5.93;3.80;;;;;;;22.91;52.08;96678.81;4984528;28;20069;-60
2021/09/23 10:59:04;;;;;;;5.10;3.93;;;;;;;23.25;52.46;96674.06;4979201;28;20065;-60
2021/09/23 11:01:36;;;;;;;4.28;3.80;;;;;;;23.79;51.92;96667.19;4979549;28;20504;-61
2021/09/23 11:04:25;;;;;;;6.93;4.68;;;;;;;24.23;54.04;96663.38;4985495;28;20066;-59
2021/09/23 11:06:58;;;;;;;5.70;4.78;;;;;;;23.72;54.53;96658.34;4981823;28;20093;-60
2021/09/23 11:09:28;;;;;;;5.45;4.60;;;;;;;23.66;54.87;96660.03;4982478;28;20081;-59
2021/09/23 11:11:58;;;;;;;4.93;4.03;;;;;;;24.11;55.23;96652.50;4985087;28;20077;-60
2021/09/23 11:14:28;;;;;;;11.05;4.65;;;;;;;23.92;55.26;96654.41;4986335;28;20069;-60
2021/09/23 11:16:58;;;;;;;6.85;3.92;;;;;;;23.32;53.67;96662.19;4982743;28;20078;-60
2021/09/23 11:19:26;;;;;;;;;;;;;;;23.52;53.10;96661.19;4982955;28;20089;-61
2021/09/23 11:21:58;;;;;;;5.22;3.90;;;;;;;23.82;53.59;96664.88;4979700;28;19964;-61
2021/09/23 11:24:28;;;;;;;4.95;3.90;;;;;;;23.92;51.12;96653.59;4980571;28;20066;-61
2021/09/23 11:26:57;;;;;;;5.13;4.10;;;;;;;24.29;50.25;96657.06;4983444;28;20074;-60
2021/09/23 11:29:25;;;;;;;4.65;4.00;;;;;;;24.57;48.75;96659.22;4977783;28;20073;-58
2021/09/23 11:31:56;;;;;;;4.65;3.60;;;;;;;25.01;46.57;96661.69;4983471;28;20069;-59
2021/09/23 11:34:32;;;;;;;5.15;4.07;;;;;;;24.37;47.87;96662.16;4986098;28;20097;-60
2021/09/23 11:37:02;;;;;;;5.72;3.95;;;;;;;24.77;46.40;96661.63;4986017;28;20320;-60
2021/09/23 11:39:31;;;;;;;5.90;4.25;;;;;;;24.21;46.40;96661.94;4981167;28;20069;-59
2021/09/23 11:42:07;;;;;;;8.07;4.00;;;;;;;24.51;46.83;96654.75;4986634;28;20058;-57